Airfield :
LOGIN :

Register | Disclaimer

   EN    FR    IT 

 










Legend :    VFR   Marginal VFR   IFR   Intensive IFR   Very Intensive IFR
Visi :
Ceiling :
>= 8 km
>= 3000ft
5 to 8 km
1000 to 3000 ft
1500m to 5 km
500 to 1000 ft
800 to 1500m
200 to 500 ft
< 800m
< 200 ft
Symbols :   Thunderstorms  Fog  Heavy snow  Heavy precipitations  Wind > 20 kt
SIGMETs :     Misc.  Thunderstorms  Icing  Turbulence  Mountain Waves  Volcanic Ashes






- Airport Elevation : 2096 ft
- IATA code : AUR


LFLW - Aurillac

CURRENT METAR :
  • 191000Z AUTO 26004KT 220V310 9999 ////// 13/13 Q1018

EXPIRED METARs :
  • 190930Z AUTO 23006KT 190V270 9999 ////// 12/11 Q1018
  • 190900Z AUTO 20005KT 160V260 3900 1600 RA BR ////// 12/11 Q1018
  • 190830Z AUTO 20004KT 140V260 6000 ////// 11/11 Q1018
  • 190800Z AUTO 22003KT 190V250 5000 -RADZ BR ////// 11/10 Q1018
  • 190730Z AUTO VRB03KT 9999 2600 ////// 11/10 Q1018
  • 190700Z AUTO 22004KT 170V260 9999 ////// 11/10 Q1018

Expired Forecast.



MET'MAP, your aeronautical weather chart ! - Copyright ORBIFLY December 2007 - Disclaimer

ORBIFLY MET'MAP TEAM :

Programming & Development : Alexandra Zaïnal
Concept & original design : Baudouin d'Aumeries
Assistance for programming : Marc-Olivier Méhu
Technical & hardware support : Manuel Goepfert

Contact : metmap@orbifly.com




SOURCES & CREDITS :

   NOAA